Jarbo, California
Current Conditions -  °F | °C
As of 2:53 PM on Monday 22 Dec 2014 (Local Time) from KOVE Reporting Station
Clear Clear  
Wind Chill: 62°   Ceiling: Unl
Heat Index: 62°   Visibility: 10mi
Dew Point: 55°   Wind: 6mph
Humidity: 78%   Direction: 270°W
Pressure: 30.19"   Gusts: NA
Location:  39.5324°N, 121.648°W
Report Text: KOVE 222253Z AUTO 27005KT 10SM CLR 17/13 A3019 RMK AO2 SLP225 T01670128
Loading
Personal Weather Stations






























Interactive Weather Map New forecast layout! Learn more

10-Day Weather Forecast

Advertisements
Track Severe Weather on mobile